Time;durP1;ratioP1;P1;durP2;ratioP2;P2;SDS_P1;SDS_P2;PMS_P1;PMS_P2;Temp;Humidity;BMP_temperature;BMP_pressure;BME280_temperature;BME280_humidity;BME280_pressure;Samples;Min_cycle;Max_cycle;Signal;HPM_P1;HPM_P2
2024/03/03 00:00:33;;;;;;;72.95;29.13;;;;;;;8.87;100.00;99465.63;5049862;28;20028;-25
2024/03/03 00:02:58;;;;;;;66.65;28.23;;;;;;;8.77;100.00;99468.66;5049839;28;20017;-26
2024/03/03 00:05:24;;;;;;;69.65;29.77;;;;;;;8.69;100.00;99472.28;5050394;28;20124;-27
2024/03/03 00:07:49;;;;;;;72.82;28.42;;;;;;;8.66;100.00;99469.22;5045259;28;20629;-26
2024/03/03 00:10:14;;;;;;;68.47;28.50;;;;;;;8.76;100.00;99467.84;5054034;28;20052;-26
2024/03/03 00:12:40;;;;;;;76.47;29.95;;;;;;;8.67;100.00;99453.09;5053812;28;20021;-27
2024/03/03 00:15:05;;;;;;;80.57;31.08;;;;;;;8.96;100.00;99467.88;5041226;28;20052;-26
2024/03/03 00:17:31;;;;;;;76.65;29.83;;;;;;;8.86;100.00;99470.13;5033814;28;20450;-26
2024/03/03 00:19:56;;;;;;;70.20;28.38;;;;;;;8.71;100.00;99464.94;5034100;28;20025;-26
2024/03/03 00:22:21;;;;;;;79.70;30.45;;;;;;;8.53;100.00;99457.53;5033889;28;20100;-26
2024/03/03 00:24:47;;;;;;;80.75;31.00;;;;;;;8.75;100.00;99462.72;5043026;28;20086;-26
2024/03/03 00:27:12;;;;;;;82.10;30.83;;;;;;;8.79;100.00;99445.38;5053935;28;20177;-26
2024/03/03 00:29:38;;;;;;;81.07;30.67;;;;;;;8.85;100.00;99451.72;5053972;28;20025;-27
2024/03/03 00:32:03;;;;;;;83.28;31.67;;;;;;;8.88;100.00;99440.72;5054129;28;20021;-27
2024/03/03 00:34:29;;;;;;;75.65;30.08;;;;;;;8.77;100.00;99444.78;5054073;28;20025;-26
2024/03/03 00:36:54;;;;;;;79.72;30.48;;;;;;;8.57;100.00;99439.41;5053828;28;20042;-26
2024/03/03 00:39:19;;;;;;;74.32;29.50;;;;;;;8.56;100.00;99427.94;5053912;28;20052;-26
2024/03/03 00:41:45;;;;;;;88.35;32.53;;;;;;;8.73;100.00;99432.91;5053797;28;20024;-26
2024/03/03 00:44:10;;;;;;;92.45;32.15;;;;;;;8.78;100.00;99439.28;5053679;28;20032;-26
2024/03/03 00:46:35;;;;;;;96.75;31.80;;;;;;;8.81;100.00;99440.69;5053595;28;20040;-26
2024/03/03 00:49:01;;;;;;;117.63;30.95;;;;;;;8.80;100.00;99439.06;5054030;28;20020;-26
2024/03/03 00:51:26;;;;;;;85.80;31.27;;;;;;;8.60;100.00;99436.34;5053557;28;20443;-26
2024/03/03 00:53:52;;;;;;;94.15;30.65;;;;;;;8.62;100.00;99431.66;5053587;28;20285;-26
2024/03/03 00:56:17;;;;;;;97.38;31.45;;;;;;;8.49;100.00;99434.25;5053574;28;20037;-26
2024/03/03 00:58:43;;;;;;;86.43;30.35;;;;;;;8.40;100.00;99433.59;5053668;28;20112;-25
2024/03/03 01:01:08;;;;;;;87.05;30.80;;;;;;;8.49;100.00;99432.44;5053786;28;20029;-26
2024/03/03 01:03:34;;;;;;;104.68;33.58;;;;;;;8.89;100.00;99429.09;5053204;28;20115;-26
2024/03/03 01:05:59;;;;;;;101.63;32.67;;;;;;;9.07;100.00;99428.53;5053431;28;20087;-26
2024/03/03 01:08:25;;;;;;;91.80;31.27;;;;;;;8.95;100.00;99428.31;5053788;28;20528;-26
2024/03/03 01:10:50;;;;;;;92.95;30.70;;;;;;;8.89;100.00;99418.47;5053423;28;20028;-25
2024/03/03 01:13:15;;;;;;;84.35;29.67;;;;;;;8.92;100.00;99416.22;5053221;28;20044;-26
2024/03/03 01:15:41;;;;;;;94.75;32.42;;;;;;;8.72;100.00;99426.81;5052002;28;20025;-26
2024/03/03 01:18:06;;;;;;;94.03;31.98;;;;;;;8.50;100.00;99412.03;5053048;28;20025;-27
2024/03/03 01:20:31;;;;;;;88.53;30.95;;;;;;;8.44;100.00;99405.69;5053299;28;20021;-26
2024/03/03 01:22:57;;;;;;;84.07;30.35;;;;;;;8.70;100.00;99422.69;5053356;28;20464;-27
2024/03/03 01:25:22;;;;;;;90.22;29.95;;;;;;;8.83;100.00;99422.75;5053169;28;20077;-27
2024/03/03 01:27:48;;;;;;;96.38;32.60;;;;;;;8.87;100.00;99416.03;5053352;28;20374;-27
2024/03/03 01:30:13;;;;;;;89.32;31.40;;;;;;;8.83;100.00;99412.13;5052700;28;20029;-27
2024/03/03 01:32:38;;;;;;;78.20;28.40;;;;;;;8.76;100.00;99413.97;5052787;28;20025;-27
2024/03/03 01:35:04;;;;;;;79.30;29.15;;;;;;;8.69;100.00;99421.06;5053175;28;20470;-27
2024/03/03 01:37:29;;;;;;;88.68;31.83;;;;;;;8.72;100.00;99415.34;5052548;28;20477;-27
2024/03/03 01:39:55;;;;;;;87.07;29.20;;;;;;;8.80;100.00;99410.69;5053038;28;20021;-26
2024/03/03 01:42:20;;;;;;;100.93;31.60;;;;;;;8.74;100.00;99403.53;5052825;28;20027;-27
2024/03/03 01:44:45;;;;;;;120.32;32.10;;;;;;;8.82;100.00;99415.81;5052708;28;20031;-27
2024/03/03 01:47:14;;;;;;;141.60;33.75;;;;;;;8.98;100.00;99406.66;5052789;28;20150;-27
2024/03/03 01:49:44;;;;;;;119.93;32.47;;;;;;;8.95;100.00;99407.06;5052624;28;20493;-27
2024/03/03 01:52:11;;;;;;;102.18;33.53;;;;;;;8.89;100.00;99406.03;5052754;28;20325;-27
2024/03/03 01:54:38;;;;;;;99.18;31.88;;;;;;;8.79;100.00;99403.75;5052579;28;20032;-27
2024/03/03 01:57:09;;;;;;;104.07;32.13;;;;;;;8.88;100.00;99412.34;5052377;28;20021;-27
2024/03/03 01:59:35;;;;;;;88.60;31.58;;;;;;;8.93;100.00;99417.03;5052492;28;20021;-27
2024/03/03 02:02:02;;;;;;;88.85;32.70;;;;;;;8.97;100.00;99415.66;5052198;28;20108;-27
2024/03/03 02:04:27;;;;;;;92.78;33.97;;;;;;;8.96;100.00;99422.78;5051998;28;20025;-26
2024/03/03 02:06:55;;;;;;;110.20;33.38;;;;;;;8.78;100.00;99426.00;5052206;28;20112;-27
2024/03/03 02:09:21;;;;;;;100.40;31.90;;;;;;;8.57;100.00;99421.66;5052182;28;20021;-27
2024/03/03 02:11:47;;;;;;;99.95;32.55;;;;;;;8.40;100.00;99422.97;5052273;28;20107;-27
2024/03/03 02:14:12;;;;;;;99.82;31.45;;;;;;;8.45;100.00;99425.84;5052039;28;20108;-26
2024/03/03 02:16:38;;;;;;;117.75;34.80;;;;;;;9.10;100.00;99428.09;5052560;28;20025;-26
2024/03/03 02:19:03;;;;;;;115.28;33.78;;;;;;;9.40;100.00;99431.22;5051667;28;20031;-26
2024/03/03 02:21:29;;;;;;;110.57;33.90;;;;;;;8.98;100.00;99422.56;5052133;28;20039;-27
2024/03/03 02:23:54;;;;;;;98.53;30.92;;;;;;;8.88;100.00;99419.50;5034811;28;20052;-26
2024/03/03 02:26:23;;;;;;;108.97;32.33;;;;;;;8.90;100.00;99414.81;5036401;28;20366;-26
2024/03/03 02:28:50;;;;;;;94.57;29.92;;;;;;;8.81;100.00;99419.47;5051457;28;20013;-27
2024/03/03 02:31:16;;;;;;;95.85;31.55;;;;;;;8.61;100.00;99414.91;5041614;28;20128;-26
2024/03/03 02:33:42;;;;;;;95.95;31.55;;;;;;;8.98;100.00;99422.56;5031860;28;20029;-26
2024/03/03 02:36:08;;;;;;;116.07;33.55;;;;;;;9.16;100.00;99428.13;5031744;28;20052;-26
2024/03/03 02:38:34;;;;;;;97.95;30.77;;;;;;;9.02;100.00;99423.00;5031612;28;20025;-26
2024/03/03 02:41:00;;;;;;;99.32;31.60;;;;;;;8.77;100.00;99420.88;5035107;28;20029;-27
2024/03/03 02:43:25;;;;;;;104.82;30.42;;;;;;;8.85;100.00;99433.16;5051648;28;20028;-25
2024/03/03 02:45:51;;;;;;;89.35;30.77;;;;;;;8.76;100.00;99429.88;5051464;28;20113;-27
2024/03/03 02:48:18;;;;;;;94.57;30.77;;;;;;;8.75;100.00;99436.19;5051375;28;20105;-25
2024/03/03 02:50:44;;;;;;;91.40;30.55;;;;;;;8.85;100.00;99441.94;5051582;28;20104;-27
2024/03/03 02:53:09;;;;;;;85.10;29.40;;;;;;;8.83;100.00;99441.31;5051408;28;20485;-26
2024/03/03 02:55:34;;;;;;;90.45;31.00;;;;;;;8.77;100.00;99436.81;5047411;28;20033;-27
2024/03/03 02:58:00;;;;;;;86.85;31.42;;;;;;;8.67;100.00;99429.22;5031289;28;20033;-26
2024/03/03 03:00:26;;;;;;;86.80;31.52;;;;;;;8.84;100.00;99440.31;5031416;28;20024;-27
2024/03/03 03:02:51;;;;;;;86.22;30.65;;;;;;;8.87;100.00;99450.53;5031505;28;20059;-26
2024/03/03 03:05:17;;;;;;;81.70;31.60;;;;;;;8.86;100.00;99448.06;5031685;28;20378;-27
2024/03/03 03:07:42;;;;;;;90.13;31.63;;;;;;;8.86;100.00;99451.53;5031510;28;20097;-26
2024/03/03 03:10:08;;;;;;;89.32;31.50;;;;;;;9.10;100.00;99450.19;5031199;28;20500;-26
2024/03/03 03:12:33;;;;;;;94.43;31.60;;;;;;;8.85;100.00;99452.53;5031045;28;20025;-25
2024/03/03 03:14:59;;;;;;;89.38;32.60;;;;;;;8.95;100.00;99447.69;5050378;28;20025;-27
2024/03/03 03:17:24;;;;;;;97.13;30.85;;;;;;;8.91;100.00;99445.63;5051446;28;20033;-27
2024/03/03 03:19:49;;;;;;;91.53;31.55;;;;;;;8.84;100.00;99445.63;5051061;28;20441;-27
2024/03/03 03:22:15;;;;;;;94.68;31.50;;;;;;;8.78;100.00;99441.13;5050949;28;20024;-26
2024/03/03 03:24:41;;;;;;;91.70;30.77;;;;;;;8.88;100.00;99446.03;5050523;28;20033;-26
2024/03/03 03:27:06;;;;;;;89.55;30.80;;;;;;;9.00;100.00;99458.53;5050948;28;20105;-26
2024/03/03 03:29:31;;;;;;;97.88;31.73;;;;;;;9.05;100.00;99452.63;5051087;28;20385;-26
2024/03/03 03:31:57;;;;;;;103.15;36.65;;;;;;;8.98;100.00;99454.44;5050991;28;20163;-27
2024/03/03 03:34:22;;;;;;;107.93;36.78;;;;;;;9.00;100.00;99447.06;5050822;28;20474;-26
2024/03/03 03:36:48;;;;;;;103.85;38.25;;;;;;;8.93;100.00;99460.34;5050695;28;20039;-27
2024/03/03 03:39:14;;;;;;;94.82;32.17;;;;;;;8.95;100.00;99463.63;5050077;28;20120;-26
2024/03/03 03:41:47;;;;;;;86.95;29.00;;;;;;;8.80;100.00;99468.25;5050650;28;20036;-27
2024/03/03 03:44:13;;;;;;;86.07;30.58;;;;;;;8.94;100.00;99467.28;5050597;28;20028;-26
2024/03/03 03:46:38;;;;;;;82.65;29.65;;;;;;;8.77;100.00;99468.66;5045980;28;20049;-26
2024/03/03 03:49:09;;;;;;;91.35;30.33;;;;;;;8.82;100.00;99476.03;5030797;28;20025;-26
2024/03/03 03:51:35;;;;;;;86.60;28.42;;;;;;;8.85;100.00;99476.44;5030767;28;20083;-26
2024/03/03 03:54:00;;;;;;;95.28;30.60;;;;;;;8.95;100.00;99478.72;5030788;28;20025;-26
2024/03/03 03:56:26;;;;;;;89.93;29.88;;;;;;;8.88;100.00;99470.72;5030682;28;20032;-26
2024/03/03 03:58:51;;;;;;;84.30;28.88;;;;;;;8.78;100.00;99472.94;5030295;28;20061;-26
2024/03/03 04:01:19;;;;;;;81.50;28.35;;;;;;;8.86;100.00;99475.41;5033292;28;20033;-27
2024/03/03 04:03:45;;;;;;;78.82;27.27;;;;;;;8.80;100.00;99482.34;5050518;28;20111;-26
2024/03/03 04:06:10;;;;;;;85.10;28.80;;;;;;;8.85;100.00;99480.91;5050417;28;20111;-27
2024/03/03 04:08:35;;;;;;;84.75;28.88;;;;;;;8.75;100.00;99478.63;5050248;28;20115;-27
2024/03/03 04:11:01;;;;;;;84.72;28.42;;;;;;;8.84;100.00;99471.34;5050549;28;20032;-27
2024/03/03 04:13:26;;;;;;;80.18;28.70;;;;;;;8.88;100.00;99478.69;5050215;28;20445;-27
2024/03/03 04:15:51;;;;;;;89.18;30.17;;;;;;;8.96;100.00;99486.47;5050433;28;20033;-27
2024/03/03 04:18:17;;;;;;;85.95;30.17;;;;;;;8.71;100.00;99490.66;5050536;28;20106;-27
2024/03/03 04:20:42;;;;;;;87.18;29.25;;;;;;;8.72;100.00;99486.97;5050282;28;20074;-27
2024/03/03 04:23:07;;;;;;;82.00;27.95;;;;;;;8.82;100.00;99491.94;5050557;28;20449;-27
2024/03/03 04:25:33;;;;;;;84.57;29.30;;;;;;;8.86;100.00;99491.34;5050105;28;20111;-27
2024/03/03 04:27:58;;;;;;;87.35;30.60;;;;;;;8.87;100.00;99486.84;5050329;28;20032;-27
2024/03/03 04:30:25;;;;;;;87.82;29.80;;;;;;;8.87;100.00;99487.69;5038300;28;20385;-26
2024/03/03 04:32:51;;;;;;;96.53;30.38;;;;;;;8.80;100.00;99487.66;5029918;28;20021;-26
2024/03/03 04:35:16;;;;;;;86.95;29.65;;;;;;;8.94;100.00;99491.16;5030354;28;20350;-26
2024/03/03 04:37:42;;;;;;;87.10;30.48;;;;;;;8.85;100.00;99488.88;5030306;28;20041;-26
2024/03/03 04:40:08;;;;;;;88.13;30.02;;;;;;;8.76;100.00;99461.72;5030079;28;20026;-26
2024/03/03 04:42:33;;;;;;;83.38;29.90;;;;;;;8.88;100.00;99483.19;5030546;28;20071;-26
2024/03/03 04:44:59;;;;;;;85.97;30.40;;;;;;;9.05;100.00;99481.81;5031647;28;20030;-27
2024/03/03 04:47:24;;;;;;;111.18;35.03;;;;;;;9.34;100.00;99482.50;5049759;28;20017;-26
2024/03/03 04:49:50;;;;;;;104.35;32.80;;;;;;;9.37;100.00;99488.22;5049833;28;20414;-26
2024/03/03 04:52:15;;;;;;;122.28;33.60;;;;;;;9.28;100.00;99489.44;5053586;28;20052;-26
2024/03/03 04:54:41;;;;;;;109.60;32.97;;;;;;;9.38;100.00;99484.53;5053117;28;20029;-26
2024/03/03 04:57:06;;;;;;;100.07;31.08;;;;;;;9.14;100.00;99479.81;5053707;28;20060;-26
2024/03/03 04:59:32;;;;;;;101.95;31.70;;;;;;;9.16;100.00;99491.03;5053941;28;20022;-26
2024/03/03 05:01:57;;;;;;;102.22;32.08;;;;;;;9.17;100.00;99500.63;5053685;28;20504;-26
2024/03/03 05:04:23;;;;;;;99.43;31.35;;;;;;;9.01;100.00;99491.19;5053720;28;20025;-26
2024/03/03 05:06:49;;;;;;;121.45;34.45;;;;;;;9.05;100.00;99494.28;5053958;28;20258;-26
2024/03/03 05:09:14;;;;;;;112.05;33.28;;;;;;;8.82;100.00;99489.28;5053718;28;20086;-27
2024/03/03 05:11:40;;;;;;;110.80;34.63;;;;;;;8.92;100.00;99495.84;5053736;28;20041;-26
2024/03/03 05:14:05;;;;;;;111.35;34.33;;;;;;;8.93;100.00;99491.34;5053398;28;20457;-27
2024/03/03 05:16:31;;;;;;;104.18;32.70;;;;;;;8.85;100.00;99496.84;5053408;28;20017;-27
2024/03/03 05:18:56;;;;;;;101.20;31.90;;;;;;;8.69;100.00;99500.66;5053145;28;20508;-27
2024/03/03 05:21:21;;;;;;;110.40;32.80;;;;;;;8.90;100.00;99500.53;5052951;28;20056;-28
2024/03/03 05:23:47;;;;;;;114.68;34.28;;;;;;;8.88;100.00;99499.13;5053249;28;20017;-26
2024/03/03 05:26:16;;;;;;;117.13;33.05;;;;;;;9.06;100.00;99499.34;5053216;28;20449;-26
2024/03/03 05:28:41;;;;;;;94.45;31.25;;;;;;;9.05;100.00;99500.41;5053597;28;20017;-27
2024/03/03 05:31:07;;;;;;;102.43;31.23;;;;;;;9.26;100.00;99498.63;5052898;28;20103;-27
2024/03/03 05:33:32;;;;;;;106.50;33.00;;;;;;;9.12;100.00;99505.72;5052702;28;20473;-28
2024/03/03 05:35:58;;;;;;;103.75;33.22;;;;;;;8.96;100.00;99499.75;5053668;28;20043;-27
2024/03/03 05:38:23;;;;;;;103.80;32.00;;;;;;;8.90;100.00;99505.84;5053163;28;20587;-27
2024/03/03 05:40:49;;;;;;;104.85;33.70;;;;;;;8.83;100.00;99490.91;5053127;28;20028;-28
2024/03/03 05:43:14;;;;;;;108.20;32.67;;;;;;;8.99;100.00;99495.88;5053055;28;20017;-27
2024/03/03 05:45:40;;;;;;;111.47;32.45;;;;;;;9.07;100.00;99508.16;5052839;28;20108;-27
2024/03/03 05:48:05;;;;;;;109.63;32.92;;;;;;;8.98;100.00;99505.66;5036635;28;20081;-27
2024/03/03 05:50:31;;;;;;;108.53;32.90;;;;;;;8.88;100.00;99504.41;5046729;28;20049;-26
2024/03/03 05:52:56;;;;;;;118.68;34.50;;;;;;;8.82;100.00;99506.03;5052725;28;20032;-27
2024/03/03 05:55:22;;;;;;;120.28;32.72;;;;;;;8.97;100.00;99512.00;5052825;28;20031;-27
2024/03/03 05:57:47;;;;;;;122.75;35.58;;;;;;;9.12;100.00;99508.38;5052590;28;20036;-28
2024/03/03 06:00:14;;;;;;;113.78;33.17;;;;;;;9.12;100.00;99513.66;5052355;28;20427;-27
2024/03/03 06:02:40;;;;;;;114.25;33.58;;;;;;;8.96;100.00;99510.34;5038530;28;20557;-26
2024/03/03 06:05:06;;;;;;;126.45;35.35;;;;;;;9.13;100.00;99517.97;5039285;28;20029;-26
2024/03/03 06:07:31;;;;;;;117.03;35.05;;;;;;;9.22;100.00;99508.00;5031160;28;20025;-27
2024/03/03 06:09:57;;;;;;;95.15;24.67;;;;;;;13.38;100.00;99524.00;5046020;28;20181;-27
2024/03/03 06:12:22;;;;;;;127.18;34.38;;;;;;;15.31;100.00;99529.72;5052472;28;20027;-27
2024/03/03 06:14:49;;;;;;;73.53;30.10;;;;;;;15.93;95.41;99529.72;5052446;28;20032;-27
2024/03/03 06:17:14;;;;;;;70.85;28.80;;;;;;;13.93;81.80;99520.31;5052406;28;20492;-27
2024/03/03 06:19:40;;;;;;;77.88;29.60;;;;;;;12.11;86.66;99529.94;5052327;28;20017;-27
2024/03/03 06:22:05;;;;;;;78.25;29.17;;;;;;;10.76;93.60;99533.56;5052530;28;20091;-26
2024/03/03 06:24:30;;;;;;;80.05;29.88;;;;;;;11.18;94.42;99533.22;5052466;28;20120;-27
2024/03/03 06:26:56;;;;;;;85.65;29.58;;;;;;;10.94;93.54;99536.34;5051716;28;20055;-27
2024/03/03 06:29:21;;;;;;;83.88;31.17;;;;;;;11.58;100.00;99540.97;5051699;28;20222;-27
2024/03/03 06:31:46;;;;;;;69.82;27.88;;;;;;;11.31;97.53;99533.94;5051611;28;20028;-26
2024/03/03 06:34:12;;;;;;;70.10;28.05;;;;;;;10.89;96.72;99533.53;5051379;28;20437;-27
2024/03/03 06:36:38;;;;;;;71.95;28.17;;;;;;;10.98;99.03;99538.59;5048027;28;20117;-26
2024/03/03 06:39:04;;;;;;;71.53;27.15;;;;;;;10.98;97.83;99542.06;5048211;28;20017;-27
2024/03/03 06:41:30;;;;;;;69.82;27.40;;;;;;;10.84;96.11;99533.34;5051179;28;20033;-26
2024/03/03 06:43:56;;;;;;;68.85;26.70;;;;;;;10.71;94.14;99541.34;5051464;28;20036;-27
2024/03/03 06:46:21;;;;;;;69.65;27.20;;;;;;;10.33;96.12;99539.38;5051307;28;20032;-27
2024/03/03 06:48:47;;;;;;;66.57;26.98;;;;;;;9.91;98.46;99533.44;5051382;28;20017;-27
2024/03/03 06:51:14;;;;;;;70.85;26.25;;;;;;;9.96;98.63;99533.66;5051347;28;20027;-26
2024/03/03 06:53:39;;;;;;;70.75;27.65;;;;;;;9.89;99.11;99527.50;5051076;28;20129;-26
2024/03/03 06:56:13;;;;;;;70.75;28.77;;;;;;;9.90;100.00;99534.44;5041905;28;20078;-27
2024/03/03 06:58:38;;;;;;;73.20;29.58;;;;;;;9.84;100.00;99533.44;5038377;28;20024;-27
2024/03/03 07:01:04;;;;;;;80.30;30.52;;;;;;;9.68;100.00;99531.19;5042646;28;20021;-27
2024/03/03 07:03:54;;;;;;;69.82;28.40;;;;;;;9.75;100.00;99532.81;5043581;28;20104;-27
2024/03/03 07:06:14;;;;;;;82.18;30.23;;;;;;;9.66;100.00;99534.03;5037450;28;20037;-38
2024/03/03 07:08:40;;;;;;;74.53;29.33;;;;;;;9.67;100.00;99543.66;5040059;28;20046;-40
2024/03/03 07:11:05;;;;;;;70.70;28.65;;;;;;;9.71;100.00;99547.53;5038995;28;20024;-40
2024/03/03 07:13:31;;;;;;;93.78;35.40;;;;;;;9.78;100.00;99551.00;5040843;28;20398;-41
2024/03/03 07:15:56;;;;;;;74.05;30.08;;;;;;;9.91;100.00;99554.72;5050005;28;20039;-41
2024/03/03 07:18:21;;;;;;;67.72;28.27;;;;;;;9.89;100.00;99548.78;5042916;28;20018;-40
2024/03/03 07:20:47;;;;;;;68.43;29.10;;;;;;;10.04;100.00;99549.41;5042264;28;20017;-37
2024/03/03 07:23:12;;;;;;;76.10;29.80;;;;;;;10.13;100.00;99548.16;5040793;28;20035;-39
2024/03/03 07:25:37;;;;;;;70.10;28.65;;;;;;;9.75;100.00;99554.09;5046054;28;20049;-41
2024/03/03 07:28:03;;;;;;;71.00;29.25;;;;;;;9.81;100.00;99551.66;5037032;28;20017;-41
2024/03/03 07:30:28;;;;;;;68.15;28.88;;;;;;;9.88;100.00;99558.59;5043111;28;20029;-40
2024/03/03 07:32:54;;;;;;;71.00;29.80;;;;;;;10.02;100.00;99561.28;5040372;28;20067;-40
2024/03/03 07:35:19;;;;;;;72.20;30.58;;;;;;;10.84;98.83;99557.28;5050631;28;20036;-40
2024/03/03 07:37:45;;;;;;;75.80;30.60;;;;;;;10.83;98.02;99565.47;5050598;28;20455;-42
2024/03/03 07:40:10;;;;;;;62.85;29.02;;;;;;;10.65;96.49;99560.81;5050386;28;20059;-42
2024/03/03 07:42:36;;;;;;;66.60;28.90;;;;;;;10.57;96.53;99567.19;5050357;28;20021;-38
2024/03/03 07:45:01;;;;;;;66.43;28.92;;;;;;;10.60;97.17;99565.94;5050634;28;20020;-41
2024/03/03 07:47:27;;;;;;;66.00;28.23;;;;;;;10.56;96.41;99557.56;5045220;28;20017;-40
2024/03/03 07:49:53;;;;;;;64.93;29.20;;;;;;;10.61;96.17;99570.25;5041746;28;20025;-40
2024/03/03 07:52:18;;;;;;;74.90;29.83;;;;;;;10.43;96.36;99568.22;5042417;28;20025;-39
2024/03/03 07:54:44;;;;;;;61.92;28.30;;;;;;;10.51;95.96;99563.50;5041686;28;20399;-36
2024/03/03 07:57:10;;;;;;;62.72;28.50;;;;;;;10.74;95.18;99570.22;5041203;28;20097;-39
2024/03/03 07:59:35;;;;;;;65.63;28.50;;;;;;;10.84;94.31;99561.81;5040217;28;20033;-40
2024/03/03 08:02:00;;;;;;;69.25;29.88;;;;;;;10.60;97.19;99573.94;5043219;28;20031;-27
2024/03/03 08:04:27;;;;;;;62.38;28.85;;;;;;;10.74;95.06;99567.56;5048079;28;20436;-26
2024/03/03 08:06:53;;;;;;;63.17;28.98;;;;;;;10.50;96.26;99561.88;5040199;28;20056;-27
2024/03/03 08:09:19;;;;;;;60.95;27.58;;;;;;;10.89;94.63;99565.47;5040660;28;20487;-27
2024/03/03 08:11:45;;;;;;;59.42;28.48;;;;;;;11.04;93.86;99567.03;5044499;28;20088;-27
2024/03/03 08:14:11;;;;;;;64.40;27.42;;;;;;;11.18;92.89;99568.63;5038243;28;20017;-26
2024/03/03 08:16:36;;;;;;;55.30;26.77;;;;;;;10.99;94.81;99573.00;5049926;28;20500;-27
2024/03/03 08:19:02;;;;;;;60.60;27.92;;;;;;;11.16;93.74;99568.03;5050176;28;20021;-28
2024/03/03 08:21:27;;;;;;;58.08;26.65;;;;;;;11.03;94.09;99565.44;5050366;28;20044;-27
2024/03/03 08:23:53;;;;;;;62.85;28.25;;;;;;;11.23;92.87;99566.16;5049986;28;20048;-27
2024/03/03 08:26:18;;;;;;;52.85;26.55;;;;;;;11.22;92.40;99574.38;5052582;28;20052;-26
2024/03/03 08:28:44;;;;;;;63.85;26.95;;;;;;;11.30;91.39;99566.94;5054102;28;20585;-27
2024/03/03 08:31:09;;;;;;;55.22;25.88;;;;;;;11.43;89.58;99575.91;5053723;28;20074;-27
2024/03/03 08:33:34;;;;;;;53.22;24.85;;;;;;;11.42;89.78;99574.25;5049808;28;20025;-27
2024/03/03 08:36:00;;;;;;;54.30;26.27;;;;;;;11.51;90.41;99570.31;5053996;28;20092;-26
2024/03/03 08:38:25;;;;;;;52.67;26.48;;;;;;;11.62;89.76;99574.97;5051510;28;20402;-28
2024/03/03 08:40:51;;;;;;;48.95;25.60;;;;;;;11.61;89.61;99573.31;5034491;28;20053;-27
2024/03/03 08:43:17;;;;;;;50.72;25.30;;;;;;;11.66;89.68;99570.84;5048588;28;20020;-27
2024/03/03 08:45:42;;;;;;;54.00;25.63;;;;;;;11.78;88.68;99567.47;5044596;28;20025;-27
2024/03/03 08:48:07;;;;;;;54.28;25.30;;;;;;;11.83;88.51;99570.34;5049496;28;20505;-27
2024/03/03 08:50:34;;;;;;;45.15;23.45;;;;;;;11.90;86.85;99557.81;5053947;28;20021;-27
2024/03/03 08:52:59;;;;;;;51.30;24.05;;;;;;;12.00;87.09;99576.00;5053851;28;20024;-27
2024/03/03 08:55:25;;;;;;;49.60;23.45;;;;;;;12.02;86.99;99571.25;5053686;28;20023;-27
2024/03/03 08:57:50;;;;;;;48.53;24.13;;;;;;;12.24;85.54;99569.84;5053772;28;20078;-28
2024/03/03 09:00:16;;;;;;;44.25;22.63;;;;;;;12.44;84.14;99564.31;5053610;28;20576;-27
2024/03/03 09:02:42;;;;;;;40.38;20.63;;;;;;;12.71;82.08;99572.06;5053578;28;20017;-27
2024/03/03 09:05:08;;;;;;;38.17;21.00;;;;;;;12.54;81.47;99568.34;5053656;28;20079;-28
2024/03/03 09:07:35;;;;;;;34.58;19.10;;;;;;;12.87;78.43;99567.97;5053698;28;20048;-27
2024/03/03 09:10:01;;;;;;;25.83;14.82;;;;;;;12.73;76.48;99572.66;5053577;28;20013;-29
2024/03/03 09:12:26;;;;;;;30.58;15.85;;;;;;;13.03;75.64;99567.38;5053233;28;20507;-27
2024/03/03 09:14:53;;;;;;;30.30;15.68;;;;;;;12.90;76.52;99568.34;5053283;28;20017;-28
2024/03/03 09:17:19;;;;;;;33.97;18.40;;;;;;;13.11;76.50;99566.25;5053432;28;20029;-28
2024/03/03 09:19:45;;;;;;;26.77;15.30;;;;;;;13.04;73.79;99566.34;5053257;28;20477;-26
2024/03/03 09:22:11;;;;;;;25.33;14.50;;;;;;;13.01;72.94;99561.44;5052830;28;20031;-28
2024/03/03 09:24:36;;;;;;;25.27;14.77;;;;;;;12.87;72.33;99562.63;5053038;28;20029;-27
2024/03/03 09:27:02;;;;;;;27.27;15.70;;;;;;;12.77;73.69;99567.69;5052860;28;20068;-27
2024/03/03 09:29:27;;;;;;;26.13;15.15;;;;;;;12.55;73.11;99557.44;5047369;28;20397;-28
2024/03/03 09:31:53;;;;;;;26.75;15.85;;;;;;;12.98;73.57;99571.75;5044033;28;20530;-27
2024/03/03 09:34:18;;;;;;;30.02;16.90;;;;;;;13.15;72.60;99562.09;5041722;28;20056;-27
2024/03/03 09:36:44;;;;;;;26.70;15.20;;;;;;;13.24;70.81;99562.63;5045632;28;20025;-27
2024/03/03 09:39:09;;;;;;;36.03;19.10;;;;;;;13.57;70.99;99558.72;5043999;28;20065;-27
2024/03/03 09:41:35;;;;;;;40.92;23.00;;;;;;;14.15;71.44;99562.56;5052815;28;20053;-28
2024/03/03 09:44:19;;;;;;;32.40;18.42;;;;;;;14.02;68.57;99556.38;5043807;28;20025;-27
2024/03/03 09:46:46;;;;;;;33.03;18.00;;;;;;;14.23;75.77;99549.66;5033294;28;20040;-28
2024/03/03 09:49:20;;;;;;;34.90;19.25;;;;;;;14.10;70.39;99541.03;5031824;28;20083;-28
2024/03/03 09:51:46;;;;;;;32.45;19.33;;;;;;;14.28;70.63;99547.09;5031652;28;20091;-29
2024/03/03 09:54:18;;;;;;;36.17;21.40;;;;;;;13.98;72.24;99547.19;5032293;28;20397;-27
2024/03/03 09:56:45;;;;;;;36.72;20.55;;;;;;;14.82;72.90;99552.31;5032609;28;20033;-26
2024/03/03 09:59:13;;;;;;;37.58;21.23;;;;;;;15.15;67.99;99553.50;5041743;28;20029;-28
2024/03/03 10:01:39;;;;;;;35.20;19.27;;;;;;;14.93;71.25;99565.94;5051103;28;20028;-26
2024/03/03 10:04:06;;;;;;;32.33;18.33;;;;;;;15.15;69.72;99561.56;5051291;28;20054;-27
2024/03/03 10:06:36;;;;;;;35.05;19.92;;;;;;;15.38;68.90;99555.31;5051472;28;20028;-29
2024/03/03 10:09:01;;;;;;;;;;;;;;;15.19;66.93;99552.00;5051627;28;20112;-27
2024/03/03 10:11:27;;;;;;;40.22;21.48;;;;;;;14.25;68.97;99546.75;5051148;28;20011;-27
2024/03/03 10:13:53;;;;;;;43.17;22.88;;;;;;;14.33;70.20;99545.59;5051474;28;20489;-27
2024/03/03 10:16:19;;;;;;;38.72;21.27;;;;;;;14.16;70.30;99540.91;5052256;28;20051;-29
2024/03/03 10:18:58;;;;;;;40.90;22.27;;;;;;;14.32;69.96;99536.75;5052077;28;20048;-28
2024/03/03 10:21:24;;;;;;;38.53;22.00;;;;;;;14.04;70.83;99530.22;5052706;28;20029;-27
2024/03/03 10:23:49;;;;;;;39.47;22.50;;;;;;;13.60;71.90;99540.34;5052011;28;20021;-29
2024/03/03 10:26:16;;;;;;;40.38;22.48;;;;;;;13.83;70.47;99538.78;5052270;28;20084;-29
2024/03/03 10:28:41;;;;;;;37.47;20.85;;;;;;;13.54;71.63;99530.59;5052434;28;20112;-28
2024/03/03 10:31:15;;;;;;;37.92;21.67;;;;;;;13.82;69.80;99529.97;5051971;28;20112;-28
2024/03/03 10:33:54;;;;;;;39.33;21.88;;;;;;;13.72;71.53;99531.56;5047286;28;20031;-28
2024/03/03 10:36:23;;;;;;;41.28;21.55;;;;;;;14.05;70.11;99522.97;5043772;28;20037;-27
2024/03/03 10:38:55;;;;;;;39.65;21.70;;;;;;;14.02;70.28;99515.44;5048010;28;20024;-27
2024/03/03 10:41:20;;;;;;;39.22;22.27;;;;;;;14.28;68.26;99517.66;5033050;28;20028;-30
2024/03/03 10:43:46;;;;;;;36.63;21.27;;;;;;;14.40;66.89;99508.81;5051963;28;20017;-27
2024/03/03 10:46:12;;;;;;;38.17;21.08;;;;;;;13.98;68.85;99509.72;5051869;28;20024;-28
2024/03/03 10:48:39;;;;;;;45.47;21.95;;;;;;;14.24;68.86;99504.97;5051350;28;20044;-28
2024/03/03 10:51:04;;;;;;;37.42;21.33;;;;;;;14.36;68.41;99503.09;5051300;28;20087;-28
2024/03/03 10:53:30;;;;;;;43.10;22.80;;;;;;;14.96;80.79;99483.19;5044255;28;20017;-27
2024/03/03 10:55:56;;;;;;;44.90;23.27;;;;;;;16.62;66.38;99493.69;5031749;28;20021;-27
2024/03/03 10:58:23;;;;;;;38.90;23.00;;;;;;;17.30;60.96;99496.88;5031817;28;20114;-28
2024/03/03 11:00:51;;;;;;;41.65;22.20;;;;;;;17.70;58.00;99500.22;5031928;28;20037;-29
2024/03/03 11:03:16;;;;;;;41.67;24.10;;;;;;;17.55;56.91;99490.97;5051321;28;20025;-29
2024/03/03 11:05:42;;;;;;;45.90;25.48;;;;;;;17.14;58.50;99489.75;5050565;28;20103;-28
2024/03/03 11:08:10;;;;;;;48.20;25.42;;;;;;;17.16;59.47;99485.72;5051353;28;20032;-29
2024/03/03 11:10:36;;;;;;;42.97;24.00;;;;;;;17.31;57.86;99489.66;5051099;28;20108;-30